Time;durP1;ratioP1;P1;durP2;ratioP2;P2;SDS_P1;SDS_P2;PMS_P1;PMS_P2;Temp;Humidity;BMP_temperature;BMP_pressure;BME280_temperature;BME280_humidity;BME280_pressure;Samples;Min_cycle;Max_cycle;Signal;HPM_P1;HPM_P2
2021/01/30 00:05:36;;;;;;;5.25;4.20;;;3.90;78.40;;;;;;4903474;29;20074;-91
2021/01/30 00:08:17;;;;;;;4.18;3.75;;;3.80;78.50;;;;;;4907650;29;20580;-91
2021/01/30 00:14:03;;;;;;;6.32;3.85;;;3.90;78.60;;;;;;5152098;22;20052;-91
2021/01/30 00:16:51;;;;;;;6.00;4.85;;;3.90;78.70;;;;;;4970387;28;20035;-91
2021/01/30 00:20:01;;;;;;;5.93;4.53;;;3.80;78.50;;;;;;4961572;28;20113;-90
2021/01/30 00:22:36;;;;;;;4.65;4.07;;;3.80;78.60;;;;;;4960580;28;20027;-91
2021/01/30 00:25:03;;;;;;;6.97;4.88;;;3.80;78.70;;;;;;4973111;28;20039;-91
2021/01/30 00:27:40;;;;;;;6.07;5.28;;;3.80;78.70;;;;;;4975704;28;20082;-91
2021/01/30 00:30:34;;;;;;;;;;;;;;;;;;;;;
2021/01/30 00:33:01;;;;;;;5.60;4.93;;;3.70;78.70;;;;;;4961455;28;20459;-91
2021/01/30 00:35:54;;;;;;;6.60;5.68;;;3.70;78.80;;;;;;4974682;28;20547;-91
2021/01/30 00:38:23;;;;;;;8.18;6.90;;;3.70;78.90;;;;;;4962288;28;20493;-93
2021/01/30 00:41:08;;;;;;;7.40;5.72;;;3.60;78.80;;;;;;4957252;28;20038;-91
2021/01/30 00:43:33;;;;;;;10.07;7.47;;;3.50;78.90;;;;;;4966278;28;20024;-93
2021/01/30 00:49:21;;;;;;;6.90;5.63;;;3.50;79.20;;;;;;4975990;28;20069;-91
2021/01/30 00:58:56;;;;;;;8.48;6.72;;;3.40;79.30;;;;;;4965767;28;20125;-93
2021/01/30 01:01:21;;;;;;;9.00;7.32;;;3.40;79.40;;;;;;4965682;28;20034;-89
2021/01/30 01:07:14;;;;;;;10.88;8.60;;;3.40;79.70;;;;;;4959016;28;20567;-90
2021/01/30 01:09:55;;;;;;;8.27;6.90;;;3.40;79.50;;;;;;4983225;28;20034;-91
2021/01/30 01:12:20;;;;;;;8.65;7.57;;;3.40;79.60;;;;;;4926461;28;20543;-92
2021/01/30 01:14:53;;;;;;;9.23;7.68;;;3.40;79.70;;;;;;4971951;28;20034;-93
2021/01/30 01:21:25;;;;;;;11.55;9.30;;;3.20;79.40;;;;;;4976399;28;20518;-92
2021/01/30 01:26:50;;;;;;;12.80;9.18;;;3.10;79.70;;;;;;5146362;23;20090;-91
2021/01/30 01:31:53;;;;;;;9.10;7.05;;;2.90;79.60;;;;;;5333918;22;20045;-93
2021/01/30 01:37:52;;;;;;;8.32;6.80;;;2.90;80.00;;;;;;4933565;29;20103;-90
2021/01/30 01:40:42;;;;;;;10.52;8.57;;;3.00;79.90;;;;;;4933763;29;20063;-90
2021/01/30 01:43:14;;;;;;;9.18;7.80;;;3.10;79.60;;;;;;4934061;29;20028;-91
2021/01/30 01:49:43;;;;;;;8.48;6.18;;;2.90;79.50;;;;;;4951485;28;20519;-91
2021/01/30 01:55:27;;;;;;;7.30;6.45;;;2.80;79.40;;;;;;5019663;22;20770;-91
2021/01/30 01:58:13;;;;;;;7.07;5.70;;;2.60;78.80;;;;;;5013034;28;20026;-90
2021/01/30 02:01:00;;;;;;;6.30;4.90;;;2.70;79.20;;;;;;5010201;28;20407;-91
2021/01/30 02:03:33;;;;;;;5.25;4.63;;;2.70;79.20;;;;;;5012629;28;20054;-91
2021/01/30 02:06:11;;;;;;;7.13;6.03;;;2.70;79.10;;;;;;4995977;28;20526;-92
2021/01/30 02:08:37;;;;;;;6.55;5.85;;;2.80;79.00;;;;;;5013131;28;20028;-91
2021/01/30 02:11:21;;;;;;;6.95;5.65;;;2.70;78.60;;;;;;5013538;28;20472;-93
2021/01/30 02:13:53;;;;;;;7.65;6.10;;;2.70;78.50;;;;;;5023042;28;20435;-92
2021/01/30 02:16:19;;;;;;;5.65;5.03;;;2.60;78.40;;;;;;5023938;28;20471;-92
2021/01/30 02:19:36;;;;;;;8.23;6.97;;;2.70;78.50;;;;;;5013963;28;20033;-94
2021/01/30 02:22:49;;;;;;;6.97;5.68;;;2.60;77.90;;;;;;5015505;28;20018;-93
2021/01/30 02:28:37;;;;;;;5.15;4.47;;;2.50;77.80;;;;;;5060529;22;20046;-92
2021/01/30 02:31:27;;;;;;;6.80;5.60;;;2.50;78.10;;;;;;4931126;29;20079;-92
2021/01/30 02:37:05;;;;;;;6.53;5.57;;;2.50;78.00;;;;;;5754432;22;20049;-92
2021/01/30 02:40:16;;;;;;;6.00;5.07;;;2.50;78.00;;;;;;5023498;28;20534;-94
2021/01/30 02:46:05;;;;;;;6.82;5.55;;;2.50;78.20;;;;;;5311830;22;20107;-95
2021/01/30 02:51:57;;;;;;;6.55;4.90;;;2.60;78.20;;;;;;5482906;22;20073;-92
2021/01/30 02:58:00;;;;;;;5.75;4.90;;;2.70;78.20;;;;;;5008064;28;20037;-94
2021/01/30 03:07:00;;;;;;;5.35;4.35;;;2.80;78.20;;;;;;4997921;28;20595;-92
2021/01/30 03:10:14;;;;;;;4.60;3.88;;;2.80;77.90;;;;;;5011208;28;20037;-92
2021/01/30 03:12:58;;;;;;;6.47;4.80;;;2.80;77.90;;;;;;4936967;28;20047;-91
2021/01/30 03:15:34;;;;;;;5.90;4.93;;;2.70;77.70;;;;;;5016186;28;20034;-91
2021/01/30 03:18:01;;;;;;;8.48;6.63;;;2.60;77.50;;;;;;5022423;28;20049;-91
2021/01/30 03:20:33;;;;;;;5.18;4.43;;;2.50;77.00;;;;;;5001568;28;20030;-93
2021/01/30 03:23:01;;;;;;;6.50;5.18;;;2.50;77.50;;;;;;4998145;28;20029;-90
2021/01/30 03:30:31;;;;;;;5.53;4.32;;;2.50;77.40;;;;;;5006302;28;20049;-91
2021/01/30 03:32:57;;;;;;;5.13;4.03;;;2.40;77.20;;;;;;4997527;28;20034;-90
2021/01/30 03:35:22;;;;;;;5.60;4.45;;;2.40;76.90;;;;;;5010193;28;20029;-91
2021/01/30 03:37:48;;;;;;;6.65;4.30;;;2.40;76.90;;;;;;5012293;28;20037;-89
2021/01/30 03:45:49;;;;;;;4.82;3.83;;;2.20;76.50;;;;;;5007695;22;20565;-92
2021/01/30 03:48:33;;;;;;;6.40;5.18;;;2.30;77.10;;;;;;5013875;28;20026;-91
2021/01/30 03:57:19;;;;;;;3.00;2.55;;;2.30;77.40;;;;;;5018382;22;20045;-95
2021/01/30 03:59:48;;;;;;;4.95;4.20;;;2.40;77.40;;;;;;5014302;28;20038;-91
2021/01/30 04:02:36;;;;;;;5.10;4.18;;;2.30;77.20;;;;;;4981965;28;20030;-91
2021/01/30 04:05:17;;;;;;;5.20;4.07;;;2.30;77.40;;;;;;5004227;28;20525;-91
2021/01/30 04:07:47;;;;;;;4.03;3.40;;;2.40;77.40;;;;;;4986867;28;20060;-91
2021/01/30 04:10:33;;;;;;;6.10;4.85;;;2.30;77.40;;;;;;5006632;28;20034;-92
2021/01/30 04:13:04;;;;;;;5.20;3.90;;;2.40;77.30;;;;;;4975910;28;20058;-92
2021/01/30 04:15:34;;;;;;;6.55;5.10;;;2.40;77.30;;;;;;5010021;28;20034;-91
2021/01/30 04:18:00;;;;;;;5.82;4.60;;;2.30;76.90;;;;;;4991151;28;20088;-90
2021/01/30 04:20:35;;;;;;;5.80;4.78;;;2.20;77.20;;;;;;4981335;28;20022;-90
2021/01/30 04:23:01;;;;;;;6.90;4.70;;;2.20;77.40;;;;;;4974341;28;20652;-89
2021/01/30 04:26:26;;;;;;;6.55;5.32;;;2.20;77.40;;;;;;5007129;28;20042;-90
2021/01/30 04:29:16;;;;;;;5.20;4.70;;;2.20;77.20;;;;;;4966335;28;20205;-92
2021/01/30 04:32:09;;;;;;;4.70;4.10;;;2.20;77.20;;;;;;4996359;28;20042;-92
2021/01/30 04:35:16;;;;;;;4.18;3.67;;;2.10;77.20;;;;;;5012598;28;20109;-92
2021/01/30 04:37:42;;;;;;;3.65;3.20;;;2.10;77.80;;;;;;4994216;28;20037;-93
2021/01/30 04:40:44;;;;;;;5.10;4.18;;;2.10;77.20;;;;;;5004610;28;20026;-94
2021/01/30 04:49:25;;;;;;;3.30;2.97;;;2.00;76.20;;;;;;5034612;28;20052;-91
2021/01/30 04:55:33;;;;;;;3.70;3.03;;;2.00;75.30;;;;;;5018712;28;20159;-90
2021/01/30 04:58:22;;;;;;;4.25;3.60;;;1.90;75.30;;;;;;5032917;28;20053;-90
2021/01/30 05:01:03;;;;;;;2.53;2.33;;;1.80;75.00;;;;;;5032518;28;20049;-90
2021/01/30 05:04:07;;;;;;;2.80;2.50;;;1.80;75.40;;;;;;5044094;28;20030;-92
2021/01/30 05:06:42;;;;;;;3.78;3.00;;;1.80;75.80;;;;;;5001308;28;20051;-91
2021/01/30 05:09:19;;;;;;;3.15;2.50;;;1.80;75.40;;;;;;5035195;28;20025;-92
2021/01/30 05:11:56;;;;;;;2.40;2.20;;;1.90;75.80;;;;;;5018611;28;20063;-92
2021/01/30 05:21:46;;;;;;;2.05;1.85;;;1.90;76.20;;;;;;4951224;28;20110;-91
2021/01/30 05:39:26;;;;;;;4.18;3.50;;;1.80;77.90;;;;;;5223546;22;20053;-89
2021/01/30 05:46:01;;;;;;;4.93;4.18;;;1.80;78.10;;;;;;5024212;23;20149;-89
2021/01/30 05:55:44;;;;;;;3.85;3.22;;;1.70;79.10;;;;;;5129267;23;20645;-89
2021/01/30 06:02:28;;;;;;;6.15;4.50;;;1.80;79.00;;;;;;4989176;28;20095;-89
2021/01/30 06:08:44;;;;;;;5.97;4.40;;;1.70;79.00;;;;;;4933257;29;20059;-92
2021/01/30 06:15:05;;;;;;;4.35;3.53;;;1.80;79.30;;;;;;5015553;23;20042;-91
2021/01/30 06:17:34;;;;;;;5.00;4.07;;;1.80;79.50;;;;;;4864569;29;20041;-92
2021/01/30 06:20:39;;;;;;;;;;;;;;;;;;;;;
2021/01/30 06:23:26;;;;;;;4.22;3.45;;;1.80;78.90;;;;;;4894558;29;20048;-90
2021/01/30 06:26:13;;;;;;;5.95;4.80;;;1.90;78.90;;;;;;4887246;29;20112;-91
2021/01/30 06:29:00;;;;;;;6.20;4.70;;;1.90;78.20;;;;;;4887572;29;20076;-93
2021/01/30 06:35:35;;;;;;;5.68;4.15;;;1.90;78.00;;;;;;4821031;29;20052;-94
2021/01/30 06:38:00;;;;;;;5.10;4.00;;;1.90;77.70;;;;;;4833650;29;20106;-92
2021/01/30 06:40:37;;;;;;;6.65;4.32;;;1.80;77.20;;;;;;4834597;29;20061;-90
2021/01/30 06:43:09;;;;;;;5.20;4.38;;;1.80;77.20;;;;;;4902084;28;20170;-90
2021/01/30 06:45:49;;;;;;;5.27;4.10;;;1.70;76.70;;;;;;4975558;28;20038;-91
2021/01/30 06:48:34;;;;;;;5.88;4.80;;;1.80;76.90;;;;;;4962286;28;20806;-93
2021/01/30 06:51:46;;;;;;;5.70;4.78;;;1.70;76.80;;;;;;4964579;28;20074;-92
2021/01/30 06:59:50;;;;;;;5.22;4.22;;;1.70;77.00;;;;;;4999601;28;20046;-90
2021/01/30 07:03:16;;;;;;;5.45;4.50;;;1.70;77.20;;;;;;5000444;28;20491;-92
2021/01/30 07:06:29;;;;;;;5.47;4.28;;;1.70;77.30;;;;;;4951134;29;20055;-89
2021/01/30 07:09:11;;;;;;;5.57;4.60;;;1.70;77.10;;;;;;4941538;29;20031;-91
2021/01/30 07:12:05;;;;;;;5.28;4.10;;;1.70;78.10;;;;;;4980939;28;20055;-91
2021/01/30 07:14:39;;;;;;;5.40;4.18;;;1.70;77.20;;;;;;5049012;22;20065;-90
2021/01/30 07:17:07;;;;;;;5.47;4.35;;;1.70;77.40;;;;;;4994566;28;20029;-89
2021/01/30 07:26:29;;;;;;;;;;;;;;;;;;;;;
2021/01/30 07:29:00;;;;;;;6.75;5.13;;;1.60;77.40;;;;;;4948265;28;20039;-91
2021/01/30 07:48:19;;;;;;;6.90;5.13;;;1.30;77.00;;;;;;4945874;29;20694;-89
2021/01/30 07:51:37;;;;;;;5.90;4.53;;;1.40;77.30;;;;;;4973339;28;20034;-90
2021/01/30 08:07:19;;;;;;;7.00;5.43;;;1.30;77.80;;;;;;5029130;28;20068;-90
2021/01/30 08:17:28;;;;;;;6.28;4.75;;;1.30;77.80;;;;;;4992650;28;20590;-90
2021/01/30 08:20:45;;;;;;;6.75;5.30;;;1.30;77.50;;;;;;4986585;28;20233;-88
2021/01/30 08:23:17;;;;;;;7.13;5.68;;;1.30;77.00;;;;;;4973646;28;20042;-88
2021/01/30 08:26:18;;;;;;;8.15;5.65;;;1.30;77.20;;;;;;4981435;28;20019;-87
2021/01/30 08:29:17;;;;;;;8.18;6.10;;;1.30;77.00;;;;;;4928857;29;20094;-90
2021/01/30 08:31:49;;;;;;;7.55;5.50;;;1.30;77.00;;;;;;5003952;28;20077;-90
2021/01/30 08:34:18;;;;;;;8.85;6.13;;;1.30;77.20;;;;;;4992336;28;20030;-89
2021/01/30 08:36:46;;;;;;;8.23;6.25;;;1.30;77.00;;;;;;5008783;28;20062;-89
2021/01/30 08:39:34;;;;;;;9.05;6.50;;;1.30;77.30;;;;;;4999156;28;20085;-92
2021/01/30 09:44:28;;;;;;;7.65;5.80;;;1.80;76.10;;;;;;6029896;22;20687;-94
2021/01/30 09:56:34;;;;;;;8.30;5.85;;;2.00;76.00;;;;;;5366563;22;20065;-93
2021/01/30 09:59:00;;;;;;;6.63;5.05;;;2.00;75.70;;;;;;4999997;28;20022;-94
2021/01/30 10:01:49;;;;;;;6.97;5.43;;;2.00;75.50;;;;;;4966694;28;20022;-94
2021/01/30 10:04:20;;;;;;;8.80;5.95;;;2.00;75.30;;;;;;5001900;28;20026;-94
2021/01/30 10:07:39;;;;;;;;;;;;;;;;;;;;;
2021/01/30 10:10:33;;;;;;;7.88;6.10;;;1.90;75.40;;;;;;4971966;28;20150;-94
2021/01/30 10:23:15;;;;;;;5.80;4.53;;;2.00;75.90;;;;;;5219189;22;20113;-94
2021/01/30 10:29:18;;;;;;;7.43;5.40;;;2.10;76.10;;;;;;5323762;22;20047;-94
2021/01/30 10:39:43;;;;;;;7.40;5.60;;;2.20;75.80;;;;;;5153550;22;20065;-91
2021/01/30 10:42:16;;;;;;;7.80;6.07;;;2.20;75.70;;;;;;5020506;22;20054;-89
2021/01/30 10:45:27;;;;;;;7.97;5.90;;;2.20;75.60;;;;;;4990644;28;20030;-95
2021/01/30 10:52:12;;;;;;;6.57;5.00;;;2.30;75.70;;;;;;5105786;22;20533;-94
2021/01/30 10:58:44;;;;;;;7.80;5.82;;;2.40;75.80;;;;;;5023785;28;20079;-95
2021/01/30 11:01:32;;;;;;;7.65;6.07;;;2.40;75.40;;;;;;4994901;28;20038;-95
2021/01/30 11:14:09;;;;;;;6.95;4.82;;;2.40;74.70;;;;;;5028436;28;20049;-93
2021/01/30 11:16:39;;;;;;;7.78;5.35;;;2.50;75.20;;;;;;5033158;28;20033;-93
2021/01/30 11:19:22;;;;;;;8.50;6.72;;;2.50;75.10;;;;;;5040948;22;20051;-94
2021/01/30 11:25:11;;;;;;;9.00;6.60;;;2.50;74.90;;;;;;4992089;28;20050;-95
2021/01/30 11:27:54;;;;;;;6.60;4.82;;;2.60;75.10;;;;;;5006848;28;20026;-95
2021/01/30 11:36:53;;;;;;;6.15;4.82;;;2.70;74.90;;;;;;5024662;28;20040;-93
2021/01/30 11:39:36;;;;;;;7.97;6.25;;;2.80;74.90;;;;;;4987397;28;20170;-94
2021/01/30 11:42:04;;;;;;;9.00;6.82;;;2.90;74.90;;;;;;5014539;28;20046;-93
2021/01/30 11:44:33;;;;;;;9.57;7.05;;;2.90;75.00;;;;;;5036003;28;20069;-93
2021/01/30 11:46:59;;;;;;;6.75;5.32;;;2.80;74.80;;;;;;5019056;28;20041;-92
2021/01/30 11:52:19;;;;;;;8.00;6.18;;;3.00;74.50;;;;;;5666007;22;20070;-92
2021/01/30 11:54:54;;;;;;;8.18;6.50;;;2.90;74.50;;;;;;4965432;28;20089;-93
2021/01/30 11:57:20;;;;;;;8.23;6.10;;;3.00;74.10;;;;;;4957983;28;20054;-93
2021/01/30 11:59:52;;;;;;;6.97;5.45;;;3.10;74.20;;;;;;4983553;28;20018;-93
2021/01/30 12:02:36;;;;;;;8.35;7.05;;;3.20;74.20;;;;;;4977757;28;20135;-93
2021/01/30 12:05:05;;;;;;;7.88;5.50;;;3.10;73.10;;;;;;4958693;28;20023;-93
2021/01/30 12:07:31;;;;;;;7.97;6.53;;;3.10;73.20;;;;;;4959948;28;20061;-93
2021/01/30 12:09:56;;;;;;;6.38;5.30;;;3.20;73.20;;;;;;4974732;28;20488;-94
2021/01/30 12:12:22;;;;;;;8.25;6.22;;;3.20;73.40;;;;;;4977283;28;20480;-93
2021/01/30 12:14:48;;;;;;;7.60;6.15;;;3.20;72.70;;;;;;4953824;28;20035;-94
2021/01/30 12:17:19;;;;;;;7.20;5.80;;;3.10;72.50;;;;;;4953002;28;20058;-93
2021/01/30 12:19:45;;;;;;;8.23;5.93;;;3.10;72.70;;;;;;4955789;28;20033;-93
2021/01/30 12:22:23;;;;;;;8.77;6.63;;;3.10;72.50;;;;;;4972756;28;20038;-93
2021/01/30 12:24:51;;;;;;;10.90;7.32;;;3.20;72.50;;;;;;4983715;28;20030;-94
2021/01/30 12:27:20;;;;;;;8.07;6.32;;;3.00;72.20;;;;;;4974712;28;21185;-94
2021/01/30 12:29:46;;;;;;;8.02;5.80;;;3.10;73.00;;;;;;4975032;28;20026;-94
2021/01/30 12:32:14;;;;;;;8.68;7.00;;;3.10;73.00;;;;;;4976559;28;20046;-93
2021/01/30 12:34:43;;;;;;;8.07;6.40;;;3.10;72.90;;;;;;4983264;28;20296;-93
2021/01/30 12:37:09;;;;;;;8.07;6.13;;;3.10;72.80;;;;;;4955803;28;20157;-93
2021/01/30 12:39:37;;;;;;;8.00;6.50;;;3.00;72.80;;;;;;4978611;28;20212;-94
2021/01/30 12:42:03;;;;;;;8.20;6.13;;;3.00;73.10;;;;;;4974008;28;20030;-94
2021/01/30 12:44:56;;;;;;;7.05;5.55;;;3.10;73.40;;;;;;4974319;28;20035;-93
2021/01/30 12:47:57;;;;;;;8.98;7.03;;;3.20;73.60;;;;;;4978738;28;20042;-94
2021/01/30 12:50:25;;;;;;;9.00;6.78;;;3.20;73.20;;;;;;4965977;28;20035;-93
2021/01/30 12:52:51;;;;;;;8.20;6.18;;;3.10;73.10;;;;;;4978858;28;20050;-94
2021/01/30 12:55:18;;;;;;;8.52;6.50;;;3.00;73.40;;;;;;4958732;28;20147;-93
2021/01/30 12:58:00;;;;;;;8.93;6.88;;;3.00;73.10;;;;;;5234068;22;20019;-94
2021/01/30 13:00:39;;;;;;;;;;;;;;;;;;;;;
2021/01/30 13:06:19;;;;;;;8.20;6.35;;;3.00;73.00;;;;;;5023663;22;20054;-94
2021/01/30 13:18:30;;;;;;;;;;;;;;;;;;;;;
2021/01/30 13:21:21;;;;;;;8.70;6.50;;;3.10;73.00;;;;;;5006820;28;20041;-96
2021/01/30 13:24:07;;;;;;;9.95;6.72;;;3.00;72.80;;;;;;5006016;28;20110;-93
2021/01/30 13:26:40;;;;;;;8.48;6.50;;;3.00;73.00;;;;;;4991497;28;20031;-94
2021/01/30 13:29:21;;;;;;;9.50;7.00;;;3.00;72.60;;;;;;4985336;28;20037;-90
2021/01/30 13:43:49;;;;;;;7.32;5.78;;;2.90;73.30;;;;;;5386887;22;20054;-94
2021/01/30 13:49:54;;;;;;;7.57;5.47;;;2.90;73.50;;;;;;5013461;28;20100;-95
2021/01/30 13:52:32;;;;;;;8.50;6.38;;;2.90;73.30;;;;;;5013848;28;20037;-93
2021/01/30 13:55:17;;;;;;;8.10;6.15;;;2.90;73.20;;;;;;5010670;28;20029;-95
2021/01/30 14:16:13;;;;;;;7.70;5.85;;;2.80;73.60;;;;;;4984840;28;20465;-92
2021/01/30 14:18:51;;;;;;;9.15;6.40;;;2.80;73.70;;;;;;4972533;28;20545;-93
2021/01/30 14:21:23;;;;;;;8.07;5.95;;;2.70;73.30;;;;;;4990909;28;20031;-92
2021/01/30 14:23:55;;;;;;;8.35;6.07;;;2.80;73.20;;;;;;4974809;28;20058;-92
2021/01/30 14:26:27;;;;;;;9.05;6.40;;;2.80;73.30;;;;;;5010891;22;20077;-93
2021/01/30 14:29:06;;;;;;;8.87;6.70;;;2.70;72.90;;;;;;4993853;28;20261;-94
2021/01/30 14:32:12;;;;;;;9.15;6.45;;;2.80;73.10;;;;;;5015223;28;20060;-92
2021/01/30 14:34:50;;;;;;;7.85;5.93;;;2.70;73.30;;;;;;5014188;28;20034;-92
2021/01/30 14:37:15;;;;;;;7.93;5.80;;;2.70;73.40;;;;;;5018204;22;20050;-92
2021/01/30 14:39:51;;;;;;;9.68;6.55;;;2.70;73.70;;;;;;4998851;28;20014;-92
2021/01/30 14:42:42;;;;;;;10.65;7.32;;;2.70;73.50;;;;;;5015248;28;20040;-90
2021/01/30 14:45:09;;;;;;;8.55;6.47;;;2.50;73.40;;;;;;4996619;28;20220;-92
2021/01/30 14:47:41;;;;;;;10.10;7.18;;;2.60;73.60;;;;;;5012519;28;20483;-92
2021/01/30 14:50:48;;;;;;;9.57;7.18;;;2.70;73.90;;;;;;5012241;28;20047;-94
2021/01/30 14:53:46;;;;;;;8.43;5.90;;;2.70;73.60;;;;;;5014656;28;20038;-93
2021/01/30 16:49:48;;;;;;;8.48;5.82;;;2.10;77.60;;;;;;5920919;22;21266;-89
2021/01/30 16:52:20;;;;;;;13.00;8.40;;;2.20;77.60;;;;;;5018799;22;20104;-90
2021/01/30 16:59:17;;;;;;;12.13;7.95;;;2.10;77.60;;;;;;5537080;22;20490;-91
2021/01/30 17:01:47;;;;;;;8.40;6.05;;;2.10;77.60;;;;;;5002909;28;20034;-89
2021/01/30 17:14:25;;;;;;;11.68;8.25;;;2.10;77.40;;;;;;5245803;22;20031;-91
2021/01/30 17:33:37;;;;;;;10.85;6.45;;;1.90;78.30;;;;;;5772603;22;20065;-90
2021/01/30 17:50:43;;;;;;;13.38;9.57;;;1.80;78.00;;;;;;4991855;28;20396;-95
2021/01/30 17:53:17;;;;;;;11.10;7.50;;;1.90;78.10;;;;;;5030866;23;20509;-92
2021/01/30 17:56:21;;;;;;;12.73;8.45;;;1.90;78.10;;;;;;5012006;28;20030;-93
2021/01/30 17:59:05;;;;;;;13.13;7.72;;;1.70;78.00;;;;;;5031132;28;20498;-92
2021/01/30 18:04:15;;;;;;;13.63;9.18;;;1.80;78.10;;;;;;6036129;22;21164;-92
2021/01/30 18:06:40;;;;;;;10.43;6.97;;;1.80;78.20;;;;;;4964699;28;20027;-92
2021/01/30 18:12:28;;;;;;;10.23;6.93;;;1.90;78.20;;;;;;4973058;28;20138;-91
2021/01/30 18:14:54;;;;;;;17.08;11.13;;;1.90;78.00;;;;;;4975537;28;20549;-92
2021/01/30 18:17:26;;;;;;;12.80;8.38;;;1.80;77.80;;;;;;4973209;28;20413;-93
2021/01/30 19:06:08;;;;;;;13.25;8.30;;;1.40;78.70;;;;;;5019381;22;20053;-91
2021/01/30 19:08:43;;;;;;;17.10;10.63;;;1.30;79.00;;;;;;4995892;28;20078;-89
2021/01/30 19:11:21;;;;;;;14.63;9.15;;;1.20;79.00;;;;;;5012754;28;20061;-89
2021/01/30 19:13:59;;;;;;;13.32;8.45;;;1.20;79.10;;;;;;5004979;28;20042;-89
2021/01/30 19:16:41;;;;;;;18.23;12.20;;;1.40;79.30;;;;;;5007187;28;20135;-90
2021/01/30 19:21:47;;;;;;;13.02;8.23;;;1.10;79.40;;;;;;5009423;28;20898;-90
2021/01/30 19:24:22;;;;;;;17.42;11.52;;;1.20;79.50;;;;;;4995517;28;20034;-90
2021/01/30 19:27:09;;;;;;;18.45;10.95;;;1.10;79.40;;;;;;5008132;28;20030;-90
2021/01/30 19:29:35;;;;;;;17.55;10.85;;;1.10;79.40;;;;;;5002992;28;20073;-89
2021/01/30 19:32:07;;;;;;;15.50;10.50;;;1.20;79.60;;;;;;4992297;28;20031;-90
2021/01/30 19:34:32;;;;;;;14.25;9.15;;;1.00;79.70;;;;;;4970931;28;20031;-89
2021/01/30 19:42:23;;;;;;;20.80;12.68;;;1.10;79.50;;;;;;4977302;28;20182;-89
2021/01/30 19:44:48;;;;;;;23.17;13.98;;;1.00;79.70;;;;;;4972466;28;20034;-89
2021/01/30 19:47:26;;;;;;;24.08;14.15;;;0.90;80.00;;;;;;4975860;28;20034;-89
2021/01/30 19:50:46;;;;;;;18.95;12.40;;;0.70;80.40;;;;;;4978640;28;20078;-90
2021/01/30 19:53:17;;;;;;;17.58;11.63;;;0.80;80.70;;;;;;4934630;29;20068;-90
2021/01/30 19:55:45;;;;;;;18.95;11.52;;;0.70;80.60;;;;;;4920465;29;20034;-89
2021/01/30 19:58:39;;;;;;;19.10;11.60;;;0.70;80.80;;;;;;4962530;28;20054;-88
2021/01/30 20:01:25;;;;;;;22.77;13.98;;;0.70;80.90;;;;;;4991188;28;20116;-90
2021/01/30 20:04:24;;;;;;;22.55;13.10;;;0.60;80.90;;;;;;4970319;28;20034;-87
2021/01/30 20:06:50;;;;;;;21.33;13.57;;;0.60;81.60;;;;;;5135987;23;20046;-89
2021/01/30 20:09:22;;;;;;;16.88;10.63;;;0.60;80.90;;;;;;4986913;28;20360;-89
2021/01/30 20:12:23;;;;;;;19.40;12.50;;;0.60;81.00;;;;;;5001750;28;20045;-91
2021/01/30 20:33:36;;;;;;;23.85;14.80;;;0.50;81.50;;;;;;5017616;28;20924;-90
2021/01/30 20:36:08;;;;;;;16.95;10.73;;;0.50;81.40;;;;;;5017380;28;20040;-90
2021/01/30 20:38:52;;;;;;;20.27;12.55;;;0.50;81.50;;;;;;5013614;28;20026;-90
2021/01/30 20:41:43;;;;;;;20.58;12.95;;;0.50;81.40;;;;;;5005309;28;20026;-93
2021/01/30 20:44:38;;;;;;;20.20;12.07;;;0.40;81.30;;;;;;5050272;22;20086;-88
2021/01/30 20:47:10;;;;;;;16.20;10.25;;;0.50;81.50;;;;;;4988717;28;20033;-96
2021/01/30 20:49:35;;;;;;;15.88;9.85;;;0.40;81.30;;;;;;5016666;28;20522;-88
2021/01/30 22:06:12;;;;;;;20.83;12.77;;;0.20;80.80;;;;;;5666040;22;20084;-96
2021/01/30 22:12:18;;;;;;;15.23;9.35;;;0.20;81.00;;;;;;5022223;28;20001;-96
2021/01/30 22:37:25;;;;;;;15.82;9.27;;;-0.10;81.30;;;;;;5328182;22;20050;-96
2021/01/30 22:47:37;;;;;;;15.43;10.05;;;-0.10;81.70;;;;;;5604435;22;20098;-96
2021/01/30 22:50:07;;;;;;;16.25;9.30;;;-0.10;81.60;;;;;;4980727;28;20022;-95
2021/01/30 22:53:09;;;;;;;18.20;11.05;;;-0.20;81.50;;;;;;4978266;28;20039;-94
2021/01/30 22:55:34;;;;;;;15.90;9.32;;;-0.10;81.50;;;;;;4998792;28;20248;-96
2021/01/30 22:58:38;;;;;;;14.15;8.73;;;-0.10;81.50;;;;;;5000676;28;20038;-95
2021/01/30 23:01:07;;;;;;;16.88;10.48;;;-0.10;81.50;;;;;;4894765;29;20037;-95
2021/01/30 23:03:45;;;;;;;19.70;12.32;;;-0.20;81.50;;;;;;4965245;28;20057;-94
2021/01/30 23:06:12;;;;;;;19.33;11.85;;;-0.30;81.50;;;;;;4983898;28;20084;-96
2021/01/30 23:08:38;;;;;;;14.25;8.70;;;-0.20;81.50;;;;;;4999254;28;20033;-96
2021/01/30 23:11:35;;;;;;;13.98;9.10;;;-0.30;81.60;;;;;;4999747;28;20026;-95
2021/01/30 23:20:00;;;;;;;14.00;9.35;;;-0.30;81.50;;;;;;5192420;22;20045;-96
2021/01/30 23:22:39;;;;;;;15.55;9.07;;;-0.30;81.70;;;;;;5034411;28;20029;-95
2021/01/30 23:25:09;;;;;;;16.73;10.48;;;-0.20;81.80;;;;;;5031161;28;20106;-96
2021/01/30 23:27:35;;;;;;;12.93;8.20;;;-0.30;82.30;;;;;;5024265;28;20026;-95
2021/01/30 23:30:34;;;;;;;16.95;10.05;;;-0.20;81.70;;;;;;5370765;22;20048;-96
2021/01/30 23:33:00;;;;;;;16.77;10.43;;;-0.20;81.80;;;;;;5022036;28;20532;-96
2021/01/30 23:38:01;;;;;;;13.95;9.32;;;-0.20;81.80;;;;;;5336986;22;20057;-96
2021/01/30 23:46:23;;;;;;;15.82;10.75;;;-0.10;81.70;;;;;;5027042;28;20073;-96
2021/01/30 23:48:50;;;;;;;14.57;8.88;;;-0.20;81.90;;;;;;5023859;28;20060;-96
2021/01/30 23:51:17;;;;;;;18.23;11.38;;;-0.20;81.80;;;;;;5031451;28;20030;-96
2021/01/30 23:54:01;;;;;;;15.43;9.60;;;-0.20;82.00;;;;;;5019697;28;20039;-96
2021/01/30 23:56:38;;;;;;;13.40;8.57;;;-0.20;82.10;;;;;;5013523;28;20021;-95
2021/01/30 23:59:07;;;;;;;17.92;10.82;;;-0.30;82.10;;;;;;4999700;28;20062;-95
